Latest Weather Observations for Lord Howe Island Windy Point

IDN60801

Issued at 7:35 am EST Sunday 21 September 2014 (issued every 30 minutes, with the page automatically refreshed every 10 minutes)

About weather observations | Map of weather stations | Latest weather observations for NSW | Other Formats
Station Details ID: 200715 Name: LORD HOWE ISLAND WINDY POINT Lat: -31.54 Lon: 159.07 Height: 4.0 m
Data from the previous 72 hours. | See also: Recent months for locations in New South Wales
Date/Time
EST
Temp
°C
App
Temp
°C
Dew
Point
Rel
Hum
%
Delta-T
°C
Wind Press
QNH
hPa
Press
MSL
hPa
Rain
since 9 am
mm
Dir
 
Spd
km/h
Gust
km/h
Spd
kts
Gust
kts
21/07:30am - - - - - SSW 32 39 17 21 - - -
21/07:00am - - - - - S 32 43 17 23 - - -
21/06:30am - - - - - S 35 43 19 23 - - -
21/06:00am - - - - - SSW 37 46 20 25 - - -
21/05:30am - - - - - S 35 46 19 25 - - -
21/05:00am - - - - - SSW 39 48 21 26 - - -
21/04:30am - - - - - S 35 46 19 25 - - -
21/04:00am - - - - - S 35 50 19 27 - - -
21/03:30am - - - - - S 39 46 21 25 - - -
21/03:00am - - - - - SSW 37 44 20 24 - - -
21/02:30am - - - - - SSW 32 41 17 22 - - -
21/02:00am - - - - - S 30 43 16 23 - - -
21/01:30am - - - - - SSW 35 46 19 25 - - -
21/01:00am - - - - - SSW 32 43 17 23 - - -
21/12:30am - - - - - S 33 48 18 26 - - -
21/12:00am - - - - - SSW 39 46 21 25 - - -
 
Date/Time
EST
Temp
°C
App
Temp
°C
Dew
Point
Rel
Hum
%
Delta-T
°C
Wind Press
QNH
hPa
Press
MSL
hPa
Rain
since 9 am
mm
Dir
 
Spd
km/h
Gust
km/h
Spd
kts
Gust
kts
20/11:30pm - - - - - SSW 39 46 21 25 - - -
20/11:00pm - - - - - SW 43 52 23 28 - - -
20/10:30pm - - - - - SW 37 46 20 25 - - -
20/10:00pm - - - - - SW 39 48 21 26 - - -
20/09:30pm - - - - - SW 37 46 20 25 - - -
20/09:00pm - - - - - SW 41 48 22 26 - - -
20/08:30pm - - - - - SSW 39 50 21 27 - - -
20/08:00pm - - - - - SSW 41 48 22 26 - - -
20/07:30pm - - - - - SSW 35 46 19 25 - - -
20/07:11pm - - - - - SSW 39 48 21 26 - - -
20/07:00pm - - - - - SW 39 50 21 27 - - -
20/06:30pm - - - - - SW 39 44 21 24 - - -
20/06:00pm - - - - - SW 41 46 22 25 - - -
20/05:30pm - - - - - SSW 43 52 23 28 - - -
20/05:00pm - - - - - SSW 39 50 21 27 - - -
20/04:30pm - - - - - SW 44 56 24 30 - - -
20/04:00pm - - - - - SSW 41 50 22 27 - - -
20/03:30pm - - - - - SW 44 54 24 29 - - -
20/03:00pm - - - - - SW 46 54 25 29 - - -
20/02:30pm - - - - - SSW 39 50 21 27 - - -
20/02:25pm - - - - - SSW 43 50 23 27 - - -
20/02:00pm - - - - - WSW 46 56 25 30 - - -
20/01:30pm - - - - - WSW 46 54 25 29 - - -
20/01:00pm - - - - - SW 46 54 25 29 - - -
20/12:30pm - - - - - SW 41 50 22 27 - - -
20/12:17pm - - - - - WSW 32 48 17 26 - - -
20/12:00pm - - - - - SSW 26 30 14 16 - - -
20/11:56am - - - - - SSW 28 30 15 16 - - -
20/11:34am - - - - - WSW 46 69 25 37 - - -
20/11:30am - - - - - WSW 43 50 23 27 - - -
20/11:00am - - - - - WSW 39 44 21 24 - - -
20/10:36am - - - - - SSW 33 52 18 28 - - -
20/10:30am - - - - - SSW 41 52 22 28 - - -
20/10:27am - - - - - SSW 46 52 25 28 - - -
20/10:00am - - - - - WSW 37 44 20 24 - - -
20/09:30am - - - - - WSW 44 57 24 31 - - -
20/09:00am - - - - - WSW 44 54 24 29 - - -
20/08:30am - - - - - W 41 48 22 26 - - -
20/08:00am - - - - - WSW 43 59 23 32 - - -
20/07:30am - - - - - WSW 41 50 22 27 - - -
20/07:08am - - - - - WSW 48 67 26 36 - - -
20/07:00am - - - - - WSW 43 50 23 27 - - -
20/06:30am - - - - - W 41 48 22 26 - - -
20/06:00am - - - - - W 43 50 23 27 - - -
20/05:30am - - - - - WSW 41 48 22 26 - - -
20/05:00am - - - - - W 43 50 23 27 - - -
20/04:30am - - - - - W 39 46 21 25 - - -
20/04:00am - - - - - WSW 39 44 21 24 - - -
20/03:30am - - - - - WSW 41 52 22 28 - - -
20/03:00am - - - - - WSW 39 50 21 27 - - -
20/02:30am - - - - - WSW 43 50 23 27 - - -
20/02:00am - - - - - WSW 39 44 21 24 - - -
20/01:30am - - - - - WSW 41 48 22 26 - - -
20/01:00am - - - - - WSW 37 46 20 25 - - -
20/12:30am - - - - - WSW 39 46 21 25 - - -
20/12:00am - - - - - WSW 44 54 24 29 - - -
 
Date/Time
EST
Temp
°C
App
Temp
°C
Dew
Point
Rel
Hum
%
Delta-T
°C
Wind Press
QNH
hPa
Press
MSL
hPa
Rain
since 9 am
mm
Dir
 
Spd
km/h
Gust
km/h
Spd
kts
Gust
kts
19/11:30pm - - - - - WSW 41 48 22 26 - - -
19/11:00pm - - - - - WSW 41 52 22 28 - - -
19/10:30pm - - - - - SW 41 48 22 26 - - -
19/10:00pm - - - - - SW 37 44 20 24 - - -
19/09:30pm - - - - - SW 39 44 21 24 - - -
19/09:00pm - - - - - SW 39 50 21 27 - - -
19/08:30pm - - - - - SW 41 54 22 29 - - -
19/08:00pm - - - - - SW 39 46 21 25 - - -
19/07:30pm - - - - - SW 37 44 20 24 - - -
19/07:00pm - - - - - WSW 39 44 21 24 - - -
19/06:30pm - - - - - WSW 37 44 20 24 - - -
19/06:00pm - - - - - WSW 39 44 21 24 - - -
19/05:30pm - - - - - WSW 37 44 20 24 - - -
19/05:00pm - - - - - WSW 35 43 19 23 - - -
19/04:30pm - - - - - WSW 37 44 20 24 - - -
19/04:00pm - - - - - WSW 37 46 20 25 - - -
19/03:30pm - - - - - WSW 41 48 22 26 - - -
19/03:00pm - - - - - WSW 41 48 22 26 - - -
19/02:30pm - - - - - WSW 41 46 22 25 - - -
19/02:00pm - - - - - WSW 37 48 20 26 - - -
19/01:30pm - - - - - WSW 39 46 21 25 - - -
19/01:00pm - - - - - WSW 37 46 20 25 - - -
19/12:30pm - - - - - WSW 35 43 19 23 - - -
19/12:00pm - - - - - WSW 39 48 21 26 - - -
19/11:30am - - - - - WSW 39 48 21 26 - - -
19/11:00am - - - - - WSW 43 50 23 27 - - -
19/10:30am - - - - - WSW 39 48 21 26 - - -
19/10:00am - - - - - WSW 43 50 23 27 - - -
19/09:30am - - - - - WSW 37 44 20 24 - - -
19/09:00am - - - - - WSW 28 33 15 18 - - -
19/08:44am - - - - - SW 35 57 19 31 - - -
19/08:30am - - - - - SW 32 39 17 21 - - -
19/08:00am - - - - - SW 28 30 15 16 - - -
19/07:30am - - - - - WSW 35 48 19 26 - - -
19/07:00am - - - - - WSW 37 46 20 25 - - -
19/06:30am - - - - - SW 43 52 23 28 - - -
19/06:15am - - - - - SW 41 59 22 32 - - -
19/06:00am - - - - - SW 37 48 20 26 - - -
19/05:30am - - - - - SW 37 46 20 25 - - -
19/05:08am - - - - - SW 37 43 20 23 - - -
19/05:00am - - - - - W 33 50 18 27 - - -
19/04:30am - - - - - WSW 35 50 19 27 - - -
19/04:00am - - - - - WSW 39 44 21 24 - - -
19/03:30am - - - - - WSW 32 37 17 20 - - -
19/03:00am - - - - - WSW 37 44 20 24 - - -
19/02:30am - - - - - SW 37 46 20 25 - - -
19/02:00am - - - - - WSW 33 41 18 22 - - -
19/01:30am - - - - - WSW 41 48 22 26 - - -
19/01:00am - - - - - WSW 35 43 19 23 - - -
19/12:30am - - - - - WSW 35 43 19 23 - - -
19/12:00am - - - - - WSW 37 48 20 26 - - -
 
Date/Time
EST
Temp
°C
App
Temp
°C
Dew
Point
Rel
Hum
%
Delta-T
°C
Wind Press
QNH
hPa
Press
MSL
hPa
Rain
since 9 am
mm
Dir
 
Spd
km/h
Gust
km/h
Spd
kts
Gust
kts
18/11:30pm - - - - - WSW 35 41 19 22 - - -
18/11:00pm - - - - - WSW 37 46 20 25 - - -
18/10:30pm - - - - - WSW 35 41 19 22 - - -
18/10:00pm - - - - - SW 35 41 19 22 - - -
18/09:30pm - - - - - SW 37 43 20 23 - - -
18/09:00pm - - - - - SW 24 28 13 15 - - -
18/08:30pm - - - - - SW 26 32 14 17 - - -
18/08:10pm - - - - - SW 35 54 19 29 - - -
18/08:00pm - - - - - SW 35 39 19 21 - - -
18/07:30pm - - - - - SW 35 41 19 22 - - -
18/07:00pm - - - - - SW 35 43 19 23 - - -
18/06:30pm - - - - - SW 32 37 17 20 - - -
18/06:00pm - - - - - SW 32 41 17 22 - - -
18/05:30pm - - - - - SSW 37 44 20 24 - - -
18/05:00pm - - - - - SW 28 35 15 19 - - -
18/04:30pm - - - - - SW 33 39 18 21 - - -
18/04:00pm - - - - - SW 37 46 20 25 - - -
18/03:30pm - - - - - SW 43 50 23 27 - - -
18/03:00pm - - - - - WSW 46 54 25 29 - - -
18/02:30pm - - - - - W 39 46 21 25 - - -
18/02:00pm - - - - - W 35 44 19 24 - - -
18/01:30pm - - - - - W 30 37 16 20 - - -
18/01:00pm - - - - - WSW 30 35 16 19 - - -
18/12:30pm - - - - - WSW 33 39 18 21 - - -
18/12:00pm - - - - - W 32 39 17 21 - - -
18/11:30am - - - - - W 28 33 15 18 - - -
18/11:00am - - - - - W 30 35 16 19 - - -
18/10:30am - - - - - W 33 39 18 21 - - -
18/10:00am - - - - - W 30 35 16 19 - - -
18/09:52am - - - - - W 28 30 15 16 - - -
18/09:30am - - - - - SW 39 46 21 25 - - -
18/09:00am - - - - - SW 43 48 23 26 - - -
18/08:51am - - - - - WSW 35 46 19 25 - - -
18/08:30am - - - - - WNW 22 26 12 14 - - -
18/08:00am - - - - - W 30 44 16 24 - - -

Other Formats:

Comma delimited format used in spreadsheet applications
http://www.bom.gov.au/fwo/IDN60801/IDN60801.95995.axf

JavaScript Object Notation format (JSON) in row-major order
http://www.bom.gov.au/fwo/IDN60801/IDN60801.95995.json